createdAt,value
2018-09-02T00:01:23.418Z,99677.00
2018-09-02T00:03:54.509Z,99679.00
2018-09-02T00:06:25.957Z,99681.00
2018-09-02T00:08:57.297Z,99687.00
2018-09-02T00:11:28.773Z,99687.00
2018-09-02T00:13:59.941Z,99683.00
2018-09-02T00:16:31.426Z,99687.00
2018-09-02T00:19:02.560Z,99682.00
2018-09-02T00:21:34.955Z,99690.00
2018-09-02T00:24:06.760Z,99686.00
2018-09-02T00:26:38.720Z,99690.00
2018-09-02T00:29:09.829Z,99688.00
2018-09-02T00:31:41.627Z,99694.00
2018-09-02T00:34:12.861Z,99693.00
2018-09-02T00:36:44.481Z,99695.00
2018-09-02T00:39:15.032Z,99696.00
2018-09-02T00:41:45.851Z,99694.00
2018-09-02T00:44:17.282Z,99697.00
2018-09-02T00:46:49.229Z,99696.00
2018-09-02T00:49:20.676Z,99692.00
2018-09-02T00:51:51.643Z,99686.00
2018-09-02T00:54:23.208Z,99685.00
2018-09-02T00:56:54.984Z,99684.00
2018-09-02T00:59:26.234Z,99684.00
2018-09-02T01:01:57.540Z,99685.00
2018-09-02T01:04:29.093Z,99689.00
2018-09-02T01:07:00.110Z,99693.00
2018-09-02T01:09:31.411Z,99696.00
2018-09-02T01:12:02.986Z,99698.00
2018-09-02T01:14:33.951Z,99692.00
2018-09-02T01:17:05.558Z,99692.00
2018-09-02T01:19:36.943Z,99696.00
2018-09-02T01:22:08.221Z,99700.00
2018-09-02T01:24:39.405Z,99699.00
2018-09-02T01:27:09.853Z,99695.00
2018-09-02T01:29:41.694Z,99694.00
2018-09-02T01:32:12.503Z,99696.00
2018-09-02T01:34:43.701Z,99700.00
2018-09-02T01:37:15.124Z,99696.00
2018-09-02T01:39:46.616Z,99704.00
2018-09-02T01:42:17.083Z,99696.00
2018-09-02T01:44:48.416Z,99703.00
2018-09-02T01:47:19.174Z,99711.00
2018-09-02T01:49:50.672Z,99707.00
2018-09-02T01:52:22.129Z,99706.00
2018-09-02T01:54:53.184Z,99711.00
2018-09-02T01:57:24.725Z,99713.00
2018-09-02T01:59:55.796Z,99718.00
2018-09-02T02:02:26.779Z,99708.00
2018-09-02T02:04:58.269Z,99710.00
2018-09-02T02:07:29.633Z,99707.00
2018-09-02T02:10:01.065Z,99711.00
2018-09-02T02:12:32.638Z,99706.00
2018-09-02T02:15:03.953Z,99703.00
2018-09-02T02:17:35.281Z,99708.00
2018-09-02T02:20:06.159Z,99711.00
2018-09-02T02:22:37.606Z,99702.00
2018-09-02T02:25:08.627Z,99705.00
2018-09-02T02:27:40.098Z,99705.00
2018-09-02T02:30:11.567Z,99706.00
2018-09-02T02:32:43.061Z,99706.00
2018-09-02T02:35:13.647Z,99703.00
2018-09-02T02:37:44.899Z,99710.00
2018-09-02T02:40:16.065Z,99709.00
2018-09-02T02:42:47.536Z,99708.00
2018-09-02T02:45:18.837Z,99711.00
2018-09-02T02:47:49.945Z,99719.00
2018-09-02T02:50:21.279Z,99716.00
2018-09-02T02:52:58.178Z,99720.00
2018-09-02T02:55:29.677Z,99715.00
2018-09-02T02:58:00.858Z,99720.00
2018-09-02T03:00:32.578Z,99712.00
2018-09-02T03:03:03.935Z,99715.00
2018-09-02T03:05:35.554Z,99717.00
2018-09-02T03:08:06.815Z,99715.00
2018-09-02T03:10:38.110Z,99721.00
2018-09-02T03:13:09.601Z,99726.00
2018-09-02T03:15:40.468Z,99730.00
2018-09-02T03:18:11.790Z,99742.00
2018-09-02T03:20:43.080Z,99743.00
2018-09-02T03:23:13.493Z,99737.00
2018-09-02T03:25:44.479Z,99733.00
2018-09-02T03:28:15.322Z,99723.00
2018-09-02T03:30:47.362Z,99720.00
2018-09-02T03:33:17.944Z,99723.00
2018-09-02T03:35:49.493Z,99733.00
2018-09-02T03:38:20.757Z,99732.00
2018-09-02T03:40:52.051Z,99727.00
2018-09-02T03:43:24.095Z,99722.00
2018-09-02T03:45:55.553Z,99733.00
2018-09-02T03:48:26.572Z,99739.00
2018-09-02T03:50:58.441Z,99744.00
2018-09-02T03:53:29.549Z,99750.00
2018-09-02T03:56:00.034Z,99749.00
2018-09-02T03:58:31.013Z,99754.00
2018-09-02T04:01:01.965Z,99759.00
2018-09-02T04:03:33.580Z,99761.00
2018-09-02T04:06:04.732Z,99759.00
2018-09-02T04:08:36.992Z,99747.00
2018-09-02T04:11:09.106Z,99741.00
2018-09-02T04:13:40.736Z,99749.00
2018-09-02T04:16:11.800Z,99751.00
2018-09-02T04:18:43.220Z,99756.00
2018-09-02T04:21:14.283Z,99759.00
2018-09-02T04:23:45.938Z,99751.00
2018-09-02T04:26:16.341Z,99754.00
2018-09-02T04:28:48.062Z,99750.00
2018-09-02T04:31:19.464Z,99757.00
2018-09-02T04:33:50.869Z,99762.00
2018-09-02T04:36:22.393Z,99765.00
2018-09-02T04:38:53.328Z,99770.00
2018-09-02T04:41:25.355Z,99778.00
2018-09-02T04:43:56.688Z,99776.00
2018-09-02T04:46:28.376Z,99781.00
2018-09-02T04:48:59.732Z,99776.00
2018-09-02T04:51:31.264Z,99774.00
2018-09-02T04:54:02.553Z,99774.00
2018-09-02T04:56:34.618Z,99779.00
2018-09-02T04:59:06.439Z,99780.00
2018-09-02T05:01:38.830Z,99775.00
2018-09-02T05:04:09.994Z,99780.00
2018-09-02T05:06:42.673Z,99773.00
2018-09-02T05:09:12.999Z,99779.00
2018-09-02T05:11:43.330Z,99781.00
2018-09-02T05:14:13.696Z,99776.00
2018-09-02T05:16:43.797Z,99771.00
2018-09-02T05:19:14.298Z,99768.00
2018-09-02T05:21:44.557Z,99764.00
2018-09-02T05:24:14.840Z,99768.00
2018-09-02T05:26:45.263Z,99763.00
2018-09-02T05:29:15.281Z,99763.00
2018-09-02T05:31:45.611Z,99763.00
2018-09-02T05:34:16.407Z,99760.00
2018-09-02T05:36:47.611Z,99757.00
2018-09-02T05:39:18.853Z,99754.00
2018-09-02T05:41:50.115Z,99761.00
2018-09-02T05:44:22.169Z,99759.00
2018-09-02T05:46:52.186Z,99768.00
2018-09-02T05:49:22.235Z,99761.00
2018-09-02T05:51:52.773Z,99760.00
2018-09-02T05:54:22.975Z,99760.00
2018-09-02T05:56:54.312Z,99767.00
2018-09-02T05:59:24.566Z,99766.00
2018-09-02T06:01:54.593Z,99765.00
2018-09-02T06:04:25.761Z,99766.00
2018-09-02T06:06:57.326Z,99763.00
2018-09-02T06:09:28.646Z,99763.00
2018-09-02T06:11:59.493Z,99763.00
2018-09-02T06:14:31.990Z,99761.00
2018-09-02T06:17:03.329Z,99761.00
2018-09-02T06:19:33.787Z,99765.00
2018-09-02T06:22:04.870Z,99773.00
2018-09-02T06:24:35.873Z,99769.00
2018-09-02T06:27:07.369Z,99774.00
2018-09-02T06:29:38.513Z,99771.00
2018-09-02T06:32:10.187Z,99772.00
2018-09-02T06:34:42.970Z,99776.00
2018-09-02T06:37:15.483Z,99777.00
2018-09-02T06:39:47.076Z,99779.00
2018-09-02T06:42:17.650Z,99783.00
2018-09-02T06:44:49.019Z,99783.00
2018-09-02T06:47:20.729Z,99784.00
2018-09-02T06:49:51.454Z,99786.00
2018-09-02T06:52:22.658Z,99786.00
2018-09-02T06:54:53.265Z,99783.00
2018-09-02T06:57:24.025Z,99786.00
2018-09-02T06:59:55.364Z,99785.00
2018-09-02T07:02:27.083Z,99779.00
2018-09-02T07:04:58.331Z,99781.00
2018-09-02T07:07:29.619Z,99783.00
2018-09-02T07:10:01.010Z,99785.00
2018-09-02T07:12:32.268Z,99780.00
2018-09-02T07:15:02.555Z,99782.00
2018-09-02T07:17:33.917Z,99781.00
2018-09-02T07:20:04.670Z,99787.00
2018-09-02T07:22:36.167Z,99782.00
2018-09-02T07:25:07.707Z,99779.00
2018-09-02T07:27:38.683Z,99777.00
2018-09-02T07:30:09.043Z,99782.00
2018-09-02T07:32:40.330Z,99782.00
2018-09-02T07:35:11.666Z,99778.00
2018-09-02T07:37:42.829Z,99773.00
2018-09-02T07:40:14.412Z,99774.00
2018-09-02T07:42:45.624Z,99771.00
2018-09-02T07:45:17.650Z,99769.00
2018-09-02T07:47:48.950Z,99769.00
2018-09-02T07:50:20.536Z,99766.00
2018-09-02T07:52:51.965Z,99768.00
2018-09-02T07:55:23.099Z,99769.00
2018-09-02T07:57:54.644Z,99762.00
2018-09-02T08:00:25.372Z,99766.00
2018-09-02T08:02:56.938Z,99762.00
2018-09-02T08:05:28.127Z,99761.00
2018-09-02T08:07:59.367Z,99756.00
2018-09-02T08:10:30.642Z,99751.00
2018-09-02T08:13:02.442Z,99751.00
2018-09-02T08:15:34.384Z,99750.00
2018-09-02T08:18:06.092Z,99749.00
2018-09-02T08:20:37.869Z,99749.00
2018-09-02T08:23:09.335Z,99748.00
2018-09-02T08:25:40.726Z,99747.00
2018-09-02T08:28:12.761Z,99747.00
2018-09-02T08:30:44.444Z,99738.00
2018-09-02T08:33:15.271Z,99737.00
2018-09-02T08:35:46.720Z,99731.00
2018-09-02T08:38:17.936Z,99723.00
2018-09-02T08:40:49.471Z,99719.00
2018-09-02T08:43:21.108Z,99725.00
2018-09-02T08:45:52.739Z,99715.00
2018-09-02T08:48:24.007Z,99716.00
2018-09-02T08:50:59.714Z,99712.00
2018-09-02T08:53:31.403Z,99704.00
2018-09-02T08:56:02.681Z,99704.00
2018-09-02T08:58:34.509Z,99702.00
2018-09-02T09:01:06.019Z,99701.00
2018-09-02T09:03:37.228Z,99694.00
2018-09-02T09:06:08.952Z,99692.00
2018-09-02T09:08:39.995Z,99689.00
2018-09-02T09:11:11.257Z,99697.00
2018-09-02T09:13:42.758Z,99697.00
2018-09-02T09:16:14.494Z,99692.00
2018-09-02T09:18:46.005Z,99681.00
2018-09-02T09:21:17.309Z,99676.00
2018-09-02T09:23:48.882Z,99674.00
2018-09-02T09:26:20.558Z,99667.00
2018-09-02T09:28:52.552Z,99662.00
2018-09-02T09:31:24.049Z,99663.00
2018-09-02T09:33:55.823Z,99667.00
2018-09-02T09:36:27.809Z,99669.00
2018-09-02T09:38:59.484Z,99671.00
2018-09-02T09:41:31.719Z,99675.00
2018-09-02T09:44:02.613Z,99668.00
2018-09-02T09:46:34.441Z,99665.00
2018-09-02T09:49:06.416Z,99662.00
2018-09-02T09:51:37.727Z,99661.00
2018-09-02T09:54:10.220Z,99659.00
2018-09-02T09:56:42.261Z,99657.00
2018-09-02T09:59:13.093Z,99664.00
2018-09-02T10:01:44.649Z,99652.00
2018-09-02T10:04:16.271Z,99648.00
2018-09-02T10:06:47.908Z,99646.00
2018-09-02T10:09:18.499Z,99645.00
2018-09-02T10:11:50.337Z,99642.00
2018-09-02T10:14:21.883Z,99634.00
2018-09-02T10:16:53.741Z,99633.00
2018-09-02T10:19:25.377Z,99638.00
2018-09-02T10:21:57.586Z,99631.00
2018-09-02T10:24:30.136Z,99625.00
2018-09-02T10:27:01.697Z,99621.00
2018-09-02T10:29:33.231Z,99625.00
2018-09-02T10:32:04.768Z,99617.00
2018-09-02T10:34:36.897Z,99615.00
2018-09-02T10:37:08.510Z,99611.00
2018-09-02T10:39:38.700Z,99604.00
2018-09-02T10:42:09.531Z,99602.00
2018-09-02T10:44:39.872Z,99597.00
2018-09-02T10:47:10.246Z,99585.00
2018-09-02T10:49:41.271Z,99587.00
2018-09-02T10:52:12.087Z,99585.00
2018-09-02T10:54:42.985Z,99583.00
2018-09-02T10:57:13.290Z,99583.00
2018-09-02T10:59:43.832Z,99585.00
2018-09-02T11:02:14.562Z,99580.00
2018-09-02T11:04:44.856Z,99582.00
2018-09-02T11:07:15.915Z,99581.00
2018-09-02T11:09:46.821Z,99581.00
2018-09-02T11:12:17.239Z,99576.00
2018-09-02T11:14:47.656Z,99573.00
2018-09-02T11:17:17.856Z,99576.00
2018-09-02T11:19:48.031Z,99571.00
2018-09-02T11:22:18.644Z,99567.00
2018-09-02T11:24:49.687Z,99562.00
2018-09-02T11:27:20.922Z,99560.00
2018-09-02T11:29:51.089Z,99564.00
2018-09-02T11:32:21.593Z,99559.00
2018-09-02T11:34:52.143Z,99556.00
2018-09-02T11:37:22.841Z,99563.00
2018-09-02T11:39:53.206Z,99551.00
2018-09-02T11:42:23.301Z,99542.00
2018-09-02T11:44:53.724Z,99539.00
2018-09-02T11:47:24.904Z,99540.00
2018-09-02T11:49:55.601Z,99532.00
2018-09-02T11:52:26.091Z,99528.00
2018-09-02T11:54:57.270Z,99533.00
2018-09-02T11:57:28.544Z,99532.00
2018-09-02T11:59:59.952Z,99528.00
2018-09-02T12:02:30.122Z,99514.00
2018-09-02T12:05:00.310Z,99516.00
2018-09-02T12:07:31.090Z,99507.00
2018-09-02T12:10:01.335Z,99506.00
2018-09-02T12:12:31.684Z,99507.00
2018-09-02T12:15:01.973Z,99503.00
2018-09-02T12:17:32.368Z,99501.00
2018-09-02T12:20:02.744Z,99495.00
2018-09-02T12:22:33.488Z,99492.00
2018-09-02T12:25:03.820Z,99495.00
2018-09-02T12:27:34.372Z,99494.00
2018-09-02T12:30:05.518Z,99491.00
2018-09-02T12:32:36.035Z,99491.00
2018-09-02T12:35:06.270Z,99482.00
2018-09-02T12:37:36.661Z,99484.00
2018-09-02T12:40:06.935Z,99483.00
2018-09-02T12:42:37.323Z,99477.00
2018-09-02T12:45:07.723Z,99476.00
2018-09-02T12:47:38.493Z,99480.00
2018-09-02T12:50:09.314Z,99470.00
2018-09-02T12:52:39.868Z,99471.00
2018-09-02T12:55:11.172Z,99467.00
2018-09-02T12:57:41.717Z,99464.00
2018-09-02T13:00:11.926Z,99465.00
2018-09-02T13:02:42.394Z,99461.00
2018-09-02T13:05:12.591Z,99457.00
2018-09-02T13:07:43.170Z,99453.00
2018-09-02T13:10:14.003Z,99448.00
2018-09-02T13:12:44.873Z,99457.00
2018-09-02T13:15:15.786Z,99456.00
2018-09-02T13:17:46.505Z,99453.00
2018-09-02T13:20:17.313Z,99456.00
2018-09-02T13:22:48.488Z,99457.00
2018-09-02T13:25:18.962Z,99460.00
2018-09-02T13:27:50.186Z,99458.00
2018-09-02T13:30:20.717Z,99457.00
2018-09-02T13:32:51.488Z,99462.00
2018-09-02T13:35:22.468Z,99456.00
2018-09-02T13:37:53.665Z,99450.00
2018-09-02T13:40:23.979Z,99446.00
2018-09-02T13:42:54.948Z,99438.00
2018-09-02T13:45:25.259Z,99443.00
2018-09-02T13:47:56.736Z,99443.00
2018-09-02T13:50:27.319Z,99444.00
2018-09-02T13:52:58.301Z,99437.00
2018-09-02T13:55:29.005Z,99434.00
2018-09-02T13:57:59.368Z,99429.00
2018-09-02T14:00:29.481Z,99427.00
2018-09-02T14:03:00.037Z,99433.00
2018-09-02T14:05:30.547Z,99432.00
2018-09-02T14:08:01.816Z,99434.00
2018-09-02T14:10:31.948Z,99428.00
2018-09-02T14:13:02.203Z,99431.00
2018-09-02T14:15:32.389Z,99437.00
2018-09-02T14:18:02.852Z,99431.00
2018-09-02T14:20:32.908Z,99431.00
2018-09-02T14:23:04.388Z,99431.00
2018-09-02T14:25:34.389Z,99437.00
2018-09-02T14:28:04.191Z,99439.00
2018-09-02T14:30:34.417Z,99443.00
2018-09-02T14:33:04.765Z,99443.00
2018-09-02T14:35:34.633Z,99435.00
2018-09-02T14:38:05.025Z,99444.00
2018-09-02T14:40:35.554Z,99439.00
2018-09-02T14:43:05.789Z,99436.00
2018-09-02T14:45:36.661Z,99439.00
2018-09-02T14:48:07.403Z,99440.00
2018-09-02T14:50:37.887Z,99441.00
2018-09-02T14:53:08.467Z,99445.00
2018-09-02T14:55:38.777Z,99437.00
2018-09-02T14:58:09.260Z,99442.00
2018-09-02T15:00:39.483Z,99442.00
2018-09-02T15:03:09.601Z,99438.00
2018-09-02T15:05:39.826Z,99440.00
2018-09-02T15:08:10.066Z,99435.00
2018-09-02T15:10:40.355Z,99435.00
2018-09-02T15:13:10.871Z,99441.00
2018-09-02T15:15:41.249Z,99438.00
2018-09-02T15:18:11.470Z,99438.00
2018-09-02T15:20:41.701Z,99435.00
2018-09-02T15:23:11.837Z,99435.00
2018-09-02T15:25:42.187Z,99442.00
2018-09-02T15:28:12.623Z,99445.00
2018-09-02T15:30:43.225Z,99443.00
2018-09-02T15:33:13.761Z,99443.00
2018-09-02T15:35:44.043Z,99440.00
2018-09-02T15:38:14.178Z,99440.00
2018-09-02T15:40:44.295Z,99435.00
2018-09-02T15:43:14.525Z,99436.00
2018-09-02T15:45:44.717Z,99434.00
2018-09-02T15:48:15.091Z,99434.00
2018-09-02T15:50:45.694Z,99433.00
2018-09-02T15:53:16.045Z,99431.00
2018-09-02T15:55:46.518Z,99432.00
2018-09-02T15:58:17.109Z,99430.00
2018-09-02T16:00:47.667Z,99430.00
2018-09-02T16:03:17.902Z,99424.00
2018-09-02T16:05:48.283Z,99431.00
2018-09-02T16:08:18.565Z,99433.00
2018-09-02T16:10:48.699Z,99433.00
2018-09-02T16:13:18.944Z,99437.00
2018-09-02T16:15:49.145Z,99432.00
2018-09-02T16:18:19.487Z,99435.00
2018-09-02T16:20:49.803Z,99431.00
2018-09-02T16:23:20.234Z,99432.00
2018-09-02T16:25:50.653Z,99435.00
2018-09-02T16:28:20.824Z,99431.00
2018-09-02T16:30:51.060Z,99437.00
2018-09-02T16:33:21.644Z,99441.00
2018-09-02T16:35:52.011Z,99442.00
2018-09-02T16:38:22.341Z,99443.00
2018-09-02T16:40:52.478Z,99438.00
2018-09-02T16:43:22.514Z,99437.00
2018-09-02T16:45:52.745Z,99443.00
2018-09-02T16:48:24.401Z,99441.00
2018-09-02T16:50:54.905Z,99447.00
2018-09-02T16:53:25.243Z,99446.00
2018-09-02T16:55:55.784Z,99448.00
2018-09-02T16:58:25.983Z,99444.00
2018-09-02T17:00:56.040Z,99447.00
2018-09-02T17:03:31.090Z,99451.00
2018-09-02T17:06:01.360Z,99447.00
2018-09-02T17:08:31.919Z,99453.00
2018-09-02T17:11:02.121Z,99454.00
2018-09-02T17:13:32.299Z,99461.00
2018-09-02T17:16:02.424Z,99465.00
2018-09-02T17:18:32.644Z,99464.00
2018-09-02T17:21:02.817Z,99471.00
2018-09-02T17:23:32.933Z,99475.00
2018-09-02T17:26:03.164Z,99473.00
2018-09-02T17:28:33.381Z,99475.00
2018-09-02T17:31:03.486Z,99481.00
2018-09-02T17:33:34.716Z,99479.00
2018-09-02T17:36:05.235Z,99475.00
2018-09-02T17:38:35.508Z,99481.00
2018-09-02T17:41:05.761Z,99483.00
2018-09-02T17:43:35.876Z,99487.00
2018-09-02T17:46:06.147Z,99492.00
2018-09-02T17:48:37.213Z,99491.00
2018-09-02T17:51:07.477Z,99491.00
2018-09-02T17:53:37.787Z,99489.00
2018-09-02T17:56:08.145Z,99496.00
2018-09-02T17:58:38.378Z,99495.00
2018-09-02T18:01:08.804Z,99499.00
2018-09-02T18:03:39.232Z,99502.00
2018-09-02T18:06:09.655Z,99502.00
2018-09-02T18:08:40.334Z,99499.00
2018-09-02T18:11:10.724Z,99507.00
2018-09-02T18:13:41.342Z,99509.00
2018-09-02T18:16:11.984Z,99510.00
2018-09-02T18:18:42.450Z,99511.00
2018-09-02T18:21:12.733Z,99508.00
2018-09-02T18:23:43.025Z,99510.00
2018-09-02T18:26:13.470Z,99508.00
2018-09-02T18:28:45.614Z,99506.00
2018-09-02T18:31:15.953Z,99503.00
2018-09-02T18:33:46.300Z,99502.00
2018-09-02T18:36:16.695Z,99508.00
2018-09-02T18:38:46.876Z,99505.00
2018-09-02T18:41:16.952Z,99500.00
2018-09-02T18:43:47.287Z,99498.00
2018-09-02T18:46:17.651Z,99504.00
2018-09-02T18:48:48.181Z,99513.00
2018-09-02T18:51:18.705Z,99512.00
2018-09-02T18:53:49.009Z,99515.00
2018-09-02T18:56:19.680Z,99519.00
2018-09-02T18:58:50.535Z,99521.00
2018-09-02T19:01:20.763Z,99513.00
2018-09-02T19:03:51.055Z,99517.00
2018-09-02T19:06:21.021Z,99511.00
2018-09-02T19:08:51.833Z,99512.00
2018-09-02T19:11:22.418Z,99513.00
2018-09-02T19:13:53.181Z,99515.00
2018-09-02T19:16:23.529Z,99514.00
2018-09-02T19:18:53.822Z,99518.00
2018-09-02T19:21:24.178Z,99518.00
2018-09-02T19:23:55.056Z,99520.00
2018-09-02T19:26:25.913Z,99516.00
2018-09-02T19:28:56.336Z,99516.00
2018-09-02T19:31:26.642Z,99521.00
2018-09-02T19:33:57.191Z,99521.00
2018-09-02T19:36:27.601Z,99521.00
2018-09-02T19:38:57.781Z,99521.00
2018-09-02T19:41:28.023Z,99526.00
2018-09-02T19:43:58.328Z,99528.00
2018-09-02T19:46:28.948Z,99525.00
2018-09-02T19:48:59.278Z,99534.00
2018-09-02T19:51:29.451Z,99529.00
2018-09-02T19:53:59.658Z,99534.00
2018-09-02T19:56:31.901Z,99537.00
2018-09-02T19:59:03.500Z,99538.00
2018-09-02T20:01:33.688Z,99542.00
2018-09-02T20:04:03.834Z,99542.00
2018-09-02T20:06:34.113Z,99549.00
2018-09-02T20:09:07.762Z,99576.00
2018-09-02T20:11:38.417Z,99582.00
2018-09-02T20:14:08.893Z,99581.00
2018-09-02T20:16:39.512Z,99574.00
2018-09-02T20:19:10.005Z,99567.00
2018-09-02T20:21:40.242Z,99575.00
2018-09-02T20:24:10.596Z,99579.00
2018-09-02T20:26:41.081Z,99576.00
2018-09-02T20:29:11.514Z,99576.00
2018-09-02T20:31:43.530Z,99574.00
2018-09-02T20:34:14.775Z,99575.00
2018-09-02T20:36:45.277Z,99577.00
2018-09-02T20:39:15.563Z,99575.00
2018-09-02T20:41:45.959Z,99574.00
2018-09-02T20:44:15.943Z,99576.00
2018-09-02T20:46:46.451Z,99585.00
2018-09-02T20:49:17.560Z,99583.00
2018-09-02T20:51:48.015Z,99584.00
2018-09-02T20:54:18.290Z,99588.00
2018-09-02T20:56:48.749Z,99588.00
2018-09-02T20:59:19.019Z,99589.00
2018-09-02T21:01:49.262Z,99588.00
2018-09-02T21:04:19.500Z,99600.00
2018-09-02T21:06:50.622Z,99599.00
2018-09-02T21:09:21.344Z,99598.00
2018-09-02T21:11:51.625Z,99597.00
2018-09-02T21:14:22.910Z,99594.00
2018-09-02T21:16:53.495Z,99590.00
2018-09-02T21:19:25.470Z,99595.00
2018-09-02T21:21:57.525Z,99589.00
2018-09-02T21:24:29.464Z,99594.00
2018-09-02T21:27:01.379Z,99598.00
2018-09-02T21:29:32.899Z,99602.00
2018-09-02T21:32:03.788Z,99601.00
2018-09-02T21:34:35.426Z,99600.00
2018-09-02T21:37:07.932Z,99602.00
2018-09-02T21:39:39.105Z,99601.00
2018-09-02T21:42:10.194Z,99608.00
2018-09-02T21:44:41.564Z,99605.00
2018-09-02T21:47:12.264Z,99608.00
2018-09-02T21:49:44.778Z,99606.00
2018-09-02T21:52:16.206Z,99609.00
2018-09-02T21:54:46.805Z,99612.00
2018-09-02T21:57:18.054Z,99615.00
2018-09-02T21:59:49.630Z,99609.00
2018-09-02T22:02:21.178Z,99607.00
2018-09-02T22:04:52.351Z,99605.00
2018-09-02T22:07:23.584Z,99601.00
2018-09-02T22:09:54.821Z,99599.00
2018-09-02T22:12:26.072Z,99599.00
2018-09-02T22:14:57.767Z,99596.00
2018-09-02T22:17:29.844Z,99590.00
2018-09-02T22:20:01.556Z,99595.00
2018-09-02T22:22:32.070Z,99593.00
2018-09-02T22:25:03.372Z,99586.00
2018-09-02T22:27:34.934Z,99589.00
2018-09-02T22:30:06.356Z,99590.00
2018-09-02T22:32:37.590Z,99586.00
2018-09-02T22:35:08.967Z,99582.00
2018-09-02T22:37:39.766Z,99580.00
2018-09-02T22:40:10.878Z,99580.00
2018-09-02T22:42:41.797Z,99576.00
2018-09-02T22:45:13.235Z,99575.00
2018-09-02T22:47:44.690Z,99573.00
2018-09-02T22:50:15.491Z,99573.00
2018-09-02T22:52:47.091Z,99564.00
2018-09-02T22:55:18.220Z,99564.00
2018-09-02T22:57:49.766Z,99561.00
2018-09-02T23:00:20.731Z,99556.00
2018-09-02T23:02:52.058Z,99551.00
2018-09-02T23:05:23.335Z,99555.00
2018-09-02T23:07:54.367Z,99555.00
2018-09-02T23:10:25.801Z,99557.00
2018-09-02T23:12:57.134Z,99564.00
2018-09-02T23:15:27.979Z,99558.00
2018-09-02T23:17:59.767Z,99556.00
2018-09-02T23:20:30.916Z,99555.00
2018-09-02T23:23:02.303Z,99552.00
2018-09-02T23:25:33.537Z,99552.00
2018-09-02T23:28:04.431Z,99546.00
2018-09-02T23:30:35.596Z,99545.00
2018-09-02T23:33:06.857Z,99541.00
2018-09-02T23:35:37.993Z,99543.00
2018-09-02T23:38:09.094Z,99541.00
2018-09-02T23:40:40.618Z,99543.00
2018-09-02T23:43:12.436Z,99546.00
2018-09-02T23:45:43.847Z,99544.00
2018-09-02T23:48:14.363Z,99543.00
2018-09-02T23:50:45.677Z,99543.00
2018-09-02T23:53:16.383Z,99545.00
2018-09-02T23:55:47.448Z,99549.00
2018-09-02T23:58:18.655Z,99546.00
